Time;durP1;ratioP1;P1;durP2;ratioP2;P2;SDS_P1;SDS_P2;PMS_P1;PMS_P2;Temp;Humidity;BMP_temperature;BMP_pressure;BME280_temperature;BME280_humidity;BME280_pressure;Samples;Min_cycle;Max_cycle;Signal;HPM_P1;HPM_P2
2021/12/17 00:00:42;;;;;;;20.77;12.60;;;6.80;99.90;;;;;;5048369;28;20459;-70
2021/12/17 00:03:15;;;;;;;24.13;13.40;;;6.80;99.90;;;;;;5045099;28;20931;-70
2021/12/17 00:05:51;;;;;;;22.97;13.67;;;6.90;99.90;;;;;;5039570;28;20426;-72
2021/12/17 00:08:19;;;;;;;22.00;13.37;;;6.90;99.90;;;;;;5037856;28;20419;-71
2021/12/17 00:10:46;;;;;;;22.03;14.17;;;6.90;99.90;;;;;;5037730;28;20441;-71
2021/12/17 00:13:12;;;;;;;22.67;13.77;;;6.90;99.90;;;;;;5045040;28;20517;-71
2021/12/17 00:15:38;;;;;;;20.73;13.10;;;7.00;99.90;;;;;;5058135;28;20543;-70
2021/12/17 00:18:13;;;;;;;21.53;14.00;;;7.00;99.90;;;;;;5048621;28;20161;-70
2021/12/17 00:40:23;;;;;;;22.67;14.13;;;7.20;99.90;;;;;;5036074;28;20451;-70
2021/12/17 00:48:25;;;;;;;18.80;12.00;;;7.30;99.90;;;;;;5023553;28;20451;-73
2021/12/17 00:53:57;;;;;;;18.47;11.73;;;7.40;99.90;;;;;;5015797;28;20524;-71
2021/12/17 00:56:25;;;;;;;19.17;12.63;;;7.30;99.90;;;;;;5016303;28;20468;-70
2021/12/17 00:58:50;;;;;;;19.10;12.43;;;7.30;99.90;;;;;;5017813;28;20739;-70
2021/12/17 01:01:17;;;;;;;20.43;12.10;;;7.30;99.90;;;;;;5039608;28;20542;-71
2021/12/17 01:03:43;;;;;;;18.83;12.37;;;7.30;99.90;;;;;;5036547;28;20174;-71
2021/12/17 01:06:09;;;;;;;16.40;11.20;;;7.30;99.90;;;;;;5043426;28;20450;-71
2021/12/17 01:08:35;;;;;;;19.90;12.20;;;7.30;99.90;;;;;;5055952;28;20407;-69
2021/12/17 01:11:01;;;;;;;22.70;12.40;;;7.40;99.90;;;;;;5047808;28;20967;-70
2021/12/17 01:13:27;;;;;;;22.50;12.50;;;7.40;99.90;;;;;;5038933;28;20765;-69
2021/12/17 01:15:53;;;;;;;26.53;13.20;;;7.40;99.90;;;;;;5047541;28;20462;-68
2021/12/17 01:18:22;;;;;;;16.63;11.60;;;7.40;99.90;;;;;;5047174;28;20191;-68
2021/12/17 01:36:59;;;;;;;26.07;13.07;;;7.60;99.90;;;;;;5038611;28;21068;-68
2021/12/17 01:42:09;;;;;;;18.70;12.00;;;7.60;99.90;;;;;;5032288;28;20463;-69
2021/12/17 01:44:38;;;;;;;18.63;12.43;;;7.60;99.90;;;;;;5048376;28;20451;-69
2021/12/17 01:47:05;;;;;;;17.40;11.37;;;7.60;99.90;;;;;;5050892;28;20532;-68
2021/12/17 02:00:22;;;;;;;18.83;11.60;;;7.50;99.90;;;;;;5041946;28;20569;-70
2021/12/17 02:02:55;;;;;;;20.63;12.43;;;7.50;99.90;;;;;;5046955;28;20415;-68
2021/12/17 02:05:20;;;;;;;17.10;10.93;;;7.50;99.90;;;;;;5046030;28;20499;-69
2021/12/17 02:07:49;;;;;;;20.07;11.83;;;7.60;99.90;;;;;;5045720;28;21118;-69
2021/12/17 02:10:55;;;;;;;17.67;11.37;;;7.60;99.90;;;;;;5040393;28;20197;-68
2021/12/17 02:30:01;;;;;;;18.10;11.70;;;7.60;99.90;;;;;;5045075;28;20513;-69
2021/12/17 02:32:29;;;;;;;18.10;11.80;;;7.60;99.90;;;;;;5029007;28;20477;-68
2021/12/17 02:37:29;;;;;;;17.50;11.10;;;7.70;99.90;;;;;;5046641;28;20431;-69
2021/12/17 02:40:10;;;;;;;21.20;11.77;;;7.70;99.90;;;;;;5030692;28;20798;-68
2021/12/17 02:48:19;;;;;;;19.03;11.60;;;7.70;99.90;;;;;;5031827;28;20953;-69
2021/12/17 02:50:57;;;;;;;16.17;10.70;;;7.80;99.90;;;;;;5045826;28;20443;-70
2021/12/17 02:53:25;;;;;;;16.60;10.67;;;7.90;99.90;;;;;;5037172;28;20440;-69
2021/12/17 02:55:54;;;;;;;17.93;10.97;;;7.90;99.90;;;;;;5040875;28;20444;-69
2021/12/17 02:58:25;;;;;;;17.43;11.30;;;7.80;99.90;;;;;;5042420;28;20744;-70
2021/12/17 03:00:52;;;;;;;20.40;10.90;;;7.90;99.90;;;;;;5049312;28;20439;-70
2021/12/17 03:03:20;;;;;;;16.57;10.47;;;7.90;99.90;;;;;;5050893;28;20415;-70
2021/12/17 03:05:48;;;;;;;18.60;11.00;;;7.80;99.90;;;;;;5034079;28;21090;-70
2021/12/17 03:08:16;;;;;;;18.70;11.40;;;7.80;99.90;;;;;;5050535;28;20407;-70
2021/12/17 03:10:44;;;;;;;16.63;11.10;;;7.80;99.90;;;;;;5033869;28;20448;-71
2021/12/17 03:13:11;;;;;;;18.20;10.90;;;7.80;99.90;;;;;;5037848;28;20434;-70
2021/12/17 03:15:45;;;;;;;19.03;11.90;;;7.80;99.90;;;;;;5049673;28;20448;-70
2021/12/17 03:23:50;;;;;;;17.87;11.63;;;7.80;99.90;;;;;;5036865;28;20425;-69
2021/12/17 03:26:19;;;;;;;14.30;10.27;;;7.80;99.90;;;;;;5045180;28;20424;-69
2021/12/17 03:28:47;;;;;;;14.80;10.77;;;7.80;99.90;;;;;;5032775;28;20416;-69
2021/12/17 03:31:14;;;;;;;17.00;11.73;;;7.80;99.90;;;;;;5046300;28;20919;-69
2021/12/17 03:33:43;;;;;;;21.07;12.07;;;7.80;99.90;;;;;;5045915;28;20996;-70
2021/12/17 03:36:15;;;;;;;16.07;9.77;;;7.80;99.90;;;;;;5041587;28;20459;-69
2021/12/17 03:38:47;;;;;;;15.63;10.90;;;7.90;99.90;;;;;;5040805;28;20519;-70
2021/12/17 03:41:34;;;;;;;19.23;11.40;;;7.90;99.90;;;;;;5049307;28;20524;-70
2021/12/17 03:43:59;;;;;;;15.00;10.30;;;7.90;99.90;;;;;;5042641;28;20428;-70
2021/12/17 03:46:25;;;;;;;18.50;10.60;;;8.00;99.90;;;;;;5030510;28;20511;-69
2021/12/17 03:48:51;;;;;;;16.80;9.93;;;8.00;99.90;;;;;;5042669;28;20263;-71
2021/12/17 03:51:19;;;;;;;18.03;10.30;;;8.00;99.90;;;;;;5047096;28;20207;-69
2021/12/17 03:53:51;;;;;;;16.70;10.60;;;8.00;99.90;;;;;;5042365;28;20901;-70
2021/12/17 03:56:17;;;;;;;19.37;11.00;;;8.00;99.90;;;;;;5045921;28;20460;-69
2021/12/17 03:58:43;;;;;;;14.50;10.30;;;8.00;99.90;;;;;;5043501;28;20419;-69
2021/12/17 04:01:08;;;;;;;19.67;11.23;;;8.00;99.90;;;;;;5029071;28;20436;-69
2021/12/17 04:03:34;;;;;;;15.23;10.17;;;8.00;99.90;;;;;;5045789;28;20875;-69
2021/12/17 04:06:00;;;;;;;14.87;10.50;;;8.00;99.90;;;;;;5046151;28;20202;-70
2021/12/17 04:08:26;;;;;;;16.03;9.73;;;8.00;99.90;;;;;;5049579;28;20196;-69
2021/12/17 04:11:02;;;;;;;14.07;9.40;;;8.00;99.90;;;;;;5055641;28;20234;-70
2021/12/17 04:13:32;;;;;;;16.60;10.00;;;8.00;99.90;;;;;;5041077;28;20435;-69
2021/12/17 04:16:02;;;;;;;13.90;9.63;;;;;;;;;;5042575;28;20463;-70
2021/12/17 04:18:28;;;;;;;18.07;10.00;;;8.00;99.90;;;;;;5034986;28;20431;-70
2021/12/17 04:20:54;;;;;;;15.90;9.30;;;8.10;99.90;;;;;;5030129;28;21121;-70
2021/12/17 04:23:20;;;;;;;14.07;10.20;;;8.10;99.90;;;;;;5037326;28;20413;-69
2021/12/17 04:25:48;;;;;;;16.00;9.87;;;8.10;99.90;;;;;;5030123;28;20435;-70
2021/12/17 04:28:14;;;;;;;19.53;9.50;;;8.00;99.90;;;;;;5046394;28;20429;-69
2021/12/17 04:30:41;;;;;;;13.00;8.90;;;8.10;99.90;;;;;;5048732;28;20798;-71
2021/12/17 04:33:06;;;;;;;13.60;8.37;;;8.10;99.90;;;;;;5047479;28;20793;-69
2021/12/17 04:35:32;;;;;;;13.27;8.53;;;8.10;99.90;;;;;;5047591;28;20462;-70
2021/12/17 04:37:59;;;;;;;11.80;8.23;;;8.20;99.90;;;;;;5044646;28;20176;-68
2021/12/17 04:40:25;;;;;;;13.47;8.60;;;8.20;99.90;;;;;;5054876;28;20242;-69
2021/12/17 04:45:18;;;;;;;11.93;8.10;;;8.20;99.90;;;;;;5049278;28;20426;-69
2021/12/17 04:58:40;;;;;;;12.10;8.63;;;8.10;99.90;;;;;;5044158;28;20431;-69
2021/12/17 05:01:12;;;;;;;9.90;7.43;;;7.90;99.90;;;;;;5043851;28;20428;-70
2021/12/17 05:03:37;;;;;;;11.00;8.00;;;7.80;99.90;;;;;;5027736;28;20189;-70
2021/12/17 05:06:03;;;;;;;15.87;8.60;;;7.70;99.90;;;;;;5028133;28;20466;-70
2021/12/17 05:08:29;;;;;;;12.00;8.37;;;7.50;99.90;;;;;;5042908;28;20185;-70
2021/12/17 05:19:43;;;;;;;17.20;9.20;;;6.70;99.90;;;;;;5030507;28;20906;-69
2021/12/17 05:21:53;;;;;;;13.37;8.53;;;6.60;99.90;;;;;;5034295;28;20451;-69
2021/12/17 05:24:18;;;;;;;15.20;8.87;;;6.50;99.90;;;;;;5033037;28;20963;-69
2021/12/17 05:26:44;;;;;;;12.67;8.97;;;6.50;99.90;;;;;;5048362;28;20181;-68
2021/12/17 05:29:09;;;;;;;15.83;9.90;;;6.50;99.90;;;;;;5046249;28;20234;-69
2021/12/17 05:31:35;;;;;;;14.10;8.17;;;6.50;99.90;;;;;;5039780;28;20208;-69
2021/12/17 05:34:00;;;;;;;13.50;8.60;;;6.50;99.90;;;;;;5044878;28;20180;-70
2021/12/17 05:36:26;;;;;;;15.03;9.70;;;6.50;99.90;;;;;;5028133;28;20259;-70
2021/12/17 05:38:52;;;;;;;12.67;8.90;;;6.30;99.90;;;;;;5048480;28;20191;-70
2021/12/17 05:41:17;;;;;;;17.53;8.83;;;6.30;99.90;;;;;;5035386;28;20194;-68
2021/12/17 05:43:43;;;;;;;12.37;7.73;;;6.20;99.90;;;;;;5046097;28;20223;-69
2021/12/17 05:46:11;;;;;;;14.83;8.40;;;6.10;99.90;;;;;;5041810;28;20177;-69
2021/12/17 05:48:38;;;;;;;15.33;8.43;;;6.10;99.90;;;;;;5034016;28;20197;-70
2021/12/17 05:51:07;;;;;;;11.97;7.57;;;5.90;99.90;;;;;;5027604;28;20969;-69
2021/12/17 05:53:33;;;;;;;11.40;8.10;;;5.80;99.90;;;;;;5027806;28;20432;-69
2021/12/17 05:55:58;;;;;;;13.40;8.90;;;5.70;99.90;;;;;;5035936;28;20449;-69
2021/12/17 05:58:25;;;;;;;13.83;8.57;;;5.70;99.90;;;;;;5041699;28;20260;-69
2021/12/17 06:00:51;;;;;;;13.97;8.43;;;5.60;99.90;;;;;;5034508;28;20288;-70
2021/12/17 06:03:20;;;;;;;13.33;8.13;;;5.50;99.90;;;;;;5040225;28;20462;-70
2021/12/17 06:05:46;;;;;;;10.97;8.37;;;5.30;99.90;;;;;;5039702;28;20420;-69
2021/12/17 06:08:12;;;;;;;15.53;8.80;;;5.40;99.90;;;;;;5047114;28;20469;-69
2021/12/17 06:10:37;;;;;;;13.40;8.73;;;5.30;99.90;;;;;;5047919;28;20197;-70
2021/12/17 06:13:04;;;;;;;13.43;8.73;;;5.30;99.90;;;;;;5042376;28;20507;-69
2021/12/17 06:15:29;;;;;;;14.83;8.70;;;5.30;99.90;;;;;;5039484;28;20208;-69
2021/12/17 06:17:55;;;;;;;13.17;8.93;;;5.30;99.90;;;;;;5047209;28;20425;-70
2021/12/17 06:20:24;;;;;;;13.90;8.67;;;5.30;99.90;;;;;;5033045;28;20189;-69
2021/12/17 06:22:50;;;;;;;13.20;8.73;;;5.30;99.90;;;;;;5027855;28;20169;-70
2021/12/17 06:25:16;;;;;;;14.10;8.97;;;5.30;99.90;;;;;;5038105;28;20508;-69
2021/12/17 06:27:42;;;;;;;13.67;8.97;;;5.40;99.90;;;;;;5027946;28;20511;-69
2021/12/17 06:30:12;;;;;;;13.10;8.90;;;5.60;99.90;;;;;;5047352;28;20181;-69
2021/12/17 06:32:37;;;;;;;13.40;8.50;;;5.60;99.90;;;;;;5046352;28;20188;-69
2021/12/17 06:35:04;;;;;;;13.77;8.57;;;5.70;99.90;;;;;;5026762;28;20439;-71
2021/12/17 06:37:30;;;;;;;16.83;9.70;;;5.70;99.90;;;;;;5029257;28;20178;-70
2021/12/17 06:39:56;;;;;;;16.27;10.23;;;5.90;99.90;;;;;;5054803;28;20847;-69
2021/12/17 06:42:21;;;;;;;16.87;11.57;;;5.90;99.90;;;;;;5046426;28;20192;-69
2021/12/17 06:44:48;;;;;;;18.13;12.10;;;5.90;99.90;;;;;;5029957;28;20228;-70
2021/12/17 06:47:32;;;;;;;17.87;12.57;;;6.00;99.90;;;;;;5038423;28;20678;-69
2021/12/17 06:54:37;;;;;;;18.17;11.50;;;6.10;99.90;;;;;;5042140;28;20443;-69
2021/12/17 06:55:59;;;;;;;17.03;10.50;;;6.00;99.90;;;;;;5027606;28;20466;-70
